Time;durP1;ratioP1;P1;durP2;ratioP2;P2;SDS_P1;SDS_P2;PMS_P1;PMS_P2;Temp;Humidity;BMP_temperature;BMP_pressure;BME280_temperature;BME280_humidity;BME280_pressure;Samples;Min_cycle;Max_cycle;Signal;HPM_P1;HPM_P2
2023/02/02 00:01:17;;;;;;;;;;;;;;;;;;4985100;28;20077;-82
2023/02/02 00:03:43;;;;;;;;;;;;;;;;;;4985967;28;19929;-83
2023/02/02 00:06:09;;;;;;;;;;;;;;;;;;4988752;28;19921;-82
2023/02/02 00:08:36;;;;;;;;;;;;;;;;;;4989092;28;19994;-82
2023/02/02 00:11:02;;;;;;;;;;;;;;;;;;4970947;28;19925;-82
2023/02/02 00:13:28;;;;;;;;;;;;;;;;;;4987543;28;19921;-80
2023/02/02 00:15:54;;;;;;;;;;;;;;;;;;4986782;28;19917;-83
2023/02/02 00:18:20;;;;;;;;;;;;;;;;;;4973891;28;19931;-84
2023/02/02 00:20:49;;;;;;;;;;;;;;;;;;4971989;28;20015;-82
2023/02/02 00:23:16;;;;;;;;;;;;;;;;;;4985808;28;19925;-80
2023/02/02 00:25:42;;;;;;;;;;;;;;;;;;4982598;28;19925;-83
2023/02/02 00:28:07;;;;;;;;;;;;;;;;;;4988835;28;20040;-81
2023/02/02 00:30:33;;;;;;;;;;;;;;;;;;4967182;28;19999;-82
2023/02/02 00:32:59;;;;;;;;;;;;;;;;;;4979964;28;19952;-80
2023/02/02 00:35:25;;;;;;;;;;;;;;;;;;4983746;28;19917;-82
2023/02/02 00:37:51;;;;;;;;;;;;;;;;;;4969141;28;20064;-82
2023/02/02 00:40:17;;;;;;;;;;;;;;;;;;4966792;28;19921;-85
2023/02/02 00:42:47;;;;;;;;;;;;;;;;;;4983420;28;20277;-82
2023/02/02 00:45:16;;;;;;;;;;;;;;;;;;4969530;28;20447;-82
2023/02/02 00:47:42;;;;;;;;;;;;;;;;;;4986968;28;20431;-81
2023/02/02 00:50:08;;;;;;;;;;;;;;;;;;4985355;28;19921;-81
2023/02/02 00:52:34;;;;;;;;;;;;;;;;;;4964718;28;20355;-82
2023/02/02 00:55:00;;;;;;;;;;;;;;;;;;4985184;28;20300;-85
2023/02/02 00:57:29;;;;;;;;;;;;;;;;;;4973506;28;20016;-82
2023/02/02 00:59:55;;;;;;;;;;;;;;;;;;4968078;28;20059;-82
2023/02/02 01:02:21;;;;;;;;;;;;;;;;;;4988169;28;20329;-83
2023/02/02 01:04:47;;;;;;;;;;;;;;;;;;4971246;28;20013;-82
2023/02/02 01:07:13;;;;;;;;;;;;;;;;;;4988742;28;20008;-82
2023/02/02 01:09:39;;;;;;;;;;;;;;;;;;4981610;28;20008;-82
2023/02/02 01:12:05;;;;;;;;;;;;;;;;;;4964893;28;20395;-84
2023/02/02 01:14:31;;;;;;;;;;;;;;;;;;4982584;28;19928;-81
2023/02/02 01:16:56;;;;;;;;;;;;;;;;;;4970841;28;19925;-80
2023/02/02 01:19:22;;;;;;;;;;;;;;;;;;4969711;28;19921;-84
2023/02/02 01:21:49;;;;;;;;;;;;;;;;;;4984109;28;20482;-80
2023/02/02 01:24:15;;;;;;;;;;;;;;;;;;4984042;28;19963;-82
2023/02/02 01:26:41;;;;;;;;;;;;;;;;;;4985318;28;19968;-82
2023/02/02 01:29:07;;;;;;;;;;;;;;;;;;4980770;28;20358;-84
2023/02/02 01:31:33;;;;;;;;;;;;;;;;;;4983933;28;19921;-81
2023/02/02 01:33:59;;;;;;;;;;;;;;;;;;4985421;28;19927;-82
2023/02/02 01:36:25;;;;;;;;;;;;;;;;;;4984042;28;19994;-82
2023/02/02 01:38:51;;;;;;;;;;;;;;;;;;4981875;28;19925;-81
2023/02/02 01:41:17;;;;;;;;;;;;;;;;;;4982362;28;19926;-83
2023/02/02 01:43:43;;;;;;;;;;;;;;;;;;4980323;28;20007;-84
2023/02/02 01:46:09;;;;;;;;;;;;;;;;;;4981261;28;19926;-83
2023/02/02 01:48:35;;;;;;;;;;;;;;;;;;4970633;28;19918;-81
2023/02/02 01:51:01;;;;;;;;;;;;;;;;;;4982767;28;19921;-82
2023/02/02 01:53:26;;;;;;;;;;;;;;;;;;4987004;28;19975;-81
2023/02/02 01:55:52;;;;;;;;;;;;;;;;;;4986591;28;19918;-82
2023/02/02 01:58:18;;;;;;;;;;;;;;;;;;4968754;28;20004;-80
2023/02/02 02:00:44;;;;;;;;;;;;;;;;;;4983416;28;19922;-81
2023/02/02 02:03:10;;;;;;;;;;;;;;;;;;4984936;28;19928;-82
2023/02/02 02:05:36;;;;;;;;;;;;;;;;;;4985302;28;20044;-82
2023/02/02 02:08:02;;;;;;;;;;;;;;;;;;4987619;28;20439;-81
2023/02/02 02:10:28;;;;;;;;;;;;;;;;;;4986058;28;20335;-82
2023/02/02 02:12:54;;;;;;;;;;;;;;;;;;4966200;28;20292;-84
2023/02/02 02:18:05;;;;;;;;;;;;;;;;;;4984733;28;19917;-82
2023/02/02 02:28:45;;;;;;;;;;;;;;;;;;4987786;28;20000;-87
2023/02/02 02:31:11;;;;;;;;;;;;;;;;;;4986922;28;21242;-83
2023/02/02 02:33:37;;;;;;;;;;;;;;;;;;4986098;28;20020;-83
2023/02/02 02:36:03;;;;;;;;;;;;;;;;;;4986270;28;20060;-84
2023/02/02 02:38:28;;;;;;;;;;;;;;;;;;4987146;28;20011;-80
2023/02/02 02:40:54;;;;;;;;;;;;;;;;;;4988492;28;20056;-82
2023/02/02 02:43:20;;;;;;;;;;;;;;;;;;4985757;28;19944;-84
2023/02/02 02:45:46;;;;;;;;;;;;;;;;;;4970266;28;19927;-80
2023/02/02 02:48:12;;;;;;;;;;;;;;;;;;4981395;28;19985;-83
2023/02/02 02:50:38;;;;;;;;;;;;;;;;;;4987666;28;19972;-82
2023/02/02 02:53:04;;;;;;;;;;;;;;;;;;4989007;28;20324;-82
2023/02/02 02:55:30;;;;;;;;;;;;;;;;;;4971775;28;19993;-83
2023/02/02 02:57:56;;;;;;;;;;;;;;;;;;4969512;28;19926;-82
2023/02/02 03:00:22;;;;;;;;;;;;;;;;;;4990396;28;20015;-81
2023/02/02 03:02:48;;;;;;;;;;;;;;;;;;4990512;28;20422;-82
2023/02/02 03:05:14;;;;;;;;;;;;;;;;;;4976446;28;19979;-83
2023/02/02 03:07:39;;;;;;;;;;;;;;;;;;4971369;28;19928;-82
2023/02/02 03:10:05;;;;;;;;;;;;;;;;;;4993805;28;19926;-82
2023/02/02 03:12:31;;;;;;;;;;;;;;;;;;4978329;28;19921;-83
2023/02/02 03:14:57;;;;;;;;;;;;;;;;;;4978079;28;20007;-83
2023/02/02 03:17:23;;;;;;;;;;;;;;;;;;4998571;28;19957;-82
2023/02/02 03:19:52;;;;;;;;;;;;;;;;;;4995538;28;19928;-82
2023/02/02 03:22:21;;;;;;;;;;;;;;;;;;4992686;28;19987;-82
2023/02/02 03:24:47;;;;;;;;;;;;;;;;;;4989689;28;20391;-81
2023/02/02 03:27:13;;;;;;;;;;;;;;;;;;4996922;28;20012;-82
2023/02/02 03:29:39;;;;;;;;;;;;;;;;;;4976045;28;19925;-82
2023/02/02 03:32:05;;;;;;;;;;;;;;;;;;4995305;28;19917;-86
2023/02/02 03:34:31;;;;;;;;;;;;;;;;;;4998799;28;19921;-83
2023/02/02 03:36:57;;;;;;;;;;;;;;;;;;4981199;28;19921;-84
2023/02/02 03:39:23;;;;;;;;;;;;;;;;;;4990748;28;19936;-82
2023/02/02 03:41:49;;;;;;;;;;;;;;;;;;4998202;28;19977;-86
2023/02/02 03:44:15;;;;;;;;;;;;;;;;;;4994349;28;20007;-83
2023/02/02 03:46:41;;;;;;;;;;;;;;;;;;4992353;28;20248;-83
2023/02/02 03:49:07;;;;;;;;;;;;;;;;;;4971682;28;19921;-84
2023/02/02 03:51:32;;;;;;;;;;;;;;;;;;4992930;28;20383;-85
2023/02/02 03:53:58;;;;;;;;;;;;;;;;;;4996364;28;20504;-87
2023/02/02 03:56:24;;;;;;;;;;;;;;;;;;4983654;28;19943;-84
2023/02/02 03:58:50;;;;;;;;;;;;;;;;;;4982610;28;21878;-83
2023/02/02 04:01:16;;;;;;;;;;;;;;;;;;4963698;28;19918;-85
2023/02/02 04:03:42;;;;;;;;;;;;;;;;;;4968047;28;19917;-82
2023/02/02 04:06:08;;;;;;;;;;;;;;;;;;4984466;28;20372;-83
2023/02/02 04:08:34;;;;;;;;;;;;;;;;;;4969547;28;19925;-81
2023/02/02 04:11:00;;;;;;;;;;;;;;;;;;4985359;28;19932;-85
2023/02/02 04:13:26;;;;;;;;;;;;;;;;;;4968907;28;19917;-85
2023/02/02 04:15:52;;;;;;;;;;;;;;;;;;4970792;28;19932;-84
2023/02/02 04:18:18;;;;;;;;;;;;;;;;;;4989262;28;19964;-83
2023/02/02 04:20:43;;;;;;;;;;;;;;;;;;4974235;28;19967;-84
2023/02/02 04:23:09;;;;;;;;;;;;;;;;;;4972678;28;20392;-83
2023/02/02 04:25:35;;;;;;;;;;;;;;;;;;4973139;28;19951;-85
2023/02/02 04:28:01;;;;;;;;;;;;;;;;;;4987136;28;19936;-86
2023/02/02 04:30:27;;;;;;;;;;;;;;;;;;4973349;28;20415;-85
2023/02/02 04:32:56;;;;;;;;;;;;;;;;;;4988776;28;20103;-89
2023/02/02 04:35:22;;;;;;;;;;;;;;;;;;4975256;28;19923;-84
2023/02/02 04:38:00;;;;;;;;;;;;;;;;;;4991755;28;19924;-86
2023/02/02 04:40:32;;;;;;;;;;;;;;;;;;4991295;28;20261;-87
2023/02/02 04:42:58;;;;;;;;;;;;;;;;;;4971941;28;19917;-84
2023/02/02 04:45:24;;;;;;;;;;;;;;;;;;4987693;28;20446;-88
2023/02/02 04:47:53;;;;;;;;;;;;;;;;;;4983570;28;20388;-85
2023/02/02 04:50:19;;;;;;;;;;;;;;;;;;4991880;28;19917;-83
2023/02/02 04:52:45;;;;;;;;;;;;;;;;;;4962198;28;19921;-84
2023/02/02 04:55:11;;;;;;;;;;;;;;;;;;4974937;28;19964;-87
2023/02/02 04:57:36;;;;;;;;;;;;;;;;;;4972021;28;20415;-85
2023/02/02 05:00:02;;;;;;;;;;;;;;;;;;4976853;28;19917;-83
2023/02/02 05:02:28;;;;;;;;;;;;;;;;;;4960474;28;19921;-83
2023/02/02 05:07:23;;;;;;;;;;;;;;;;;;4998305;28;20019;-76
2023/02/02 05:09:48;;;;;;;;;;;;;;;;;;4979620;28;19925;-76
2023/02/02 05:12:14;;;;;;;;;;;;;;;;;;4980235;28;20074;-76
2023/02/02 05:14:40;;;;;;;;;;;;;;;;;;4975203;28;20481;-76
2023/02/02 05:17:06;;;;;;;;;;;;;;;;;;4989613;28;20428;-76
2023/02/02 05:19:32;;;;;;;;;;;;;;;;;;4975159;28;19925;-75
2023/02/02 05:21:58;;;;;;;;;;;;;;;;;;4984730;28;19925;-75
2023/02/02 05:24:24;;;;;;;;;;;;;;;;;;4986019;28;19929;-75
2023/02/02 05:26:52;;;;;;;;;;;;;;;;;;4967475;28;19948;-75
2023/02/02 05:29:17;;;;;;;;;;;;;;;;;;4979857;28;21088;-75
2023/02/02 05:31:43;;;;;;;;;;;;;;;;;;4983180;28;19926;-76
2023/02/02 05:34:10;;;;;;;;;;;;;;;;;;4981656;28;20651;-76
2023/02/02 05:36:36;;;;;;;;;;;;;;;;;;4982285;28;19971;-76
2023/02/02 05:39:02;;;;;;;;;;;;;;;;;;4983720;28;20791;-76
2023/02/02 05:41:28;;;;;;;;;;;;;;;;;;4968576;28;19925;-76
2023/02/02 05:43:53;;;;;;;;;;;;;;;;;;4975606;28;19935;-76
2023/02/02 05:46:19;;;;;;;;;;;;;;;;;;4986233;28;19925;-76
2023/02/02 05:48:45;;;;;;;;;;;;;;;;;;4989824;28;19964;-76
2023/02/02 05:51:11;;;;;;;;;;;;;;;;;;5007528;28;20007;-76
2023/02/02 05:53:37;;;;;;;;;;;;;;;;;;4981533;28;19952;-76
2023/02/02 05:56:03;;;;;;;;;;;;;;;;;;4985122;28;19917;-76
2023/02/02 05:58:29;;;;;;;;;;;;;;;;;;4986829;28;19933;-75
2023/02/02 06:00:55;;;;;;;;;;;;;;;;;;4990179;28;20659;-75
2023/02/02 06:03:21;;;;;;;;;;;;;;;;;;4990795;28;19925;-76
2023/02/02 06:05:47;;;;;;;;;;;;;;;;;;4975362;28;19983;-75
2023/02/02 06:08:13;;;;;;;;;;;;;;;;;;4987275;28;19921;-75
2023/02/02 06:10:38;;;;;;;;;;;;;;;;;;4989084;28;20003;-75
2023/02/02 06:13:04;;;;;;;;;;;;;;;;;;4993717;28;19995;-75
2023/02/02 06:15:31;;;;;;;;;;;;;;;;;;4999917;28;19925;-75
2023/02/02 06:17:57;;;;;;;;;;;;;;;;;;4997551;28;19932;-75
2023/02/02 06:20:23;;;;;;;;;;;;;;;;;;4995590;28;19924;-75
2023/02/02 06:22:49;;;;;;;;;;;;;;;;;;4980387;28;19921;-75
2023/02/02 06:25:15;;;;;;;;;;;;;;;;;;4997576;28;20307;-75
2023/02/02 06:27:43;;;;;;;;;;;;;;;;;;4984601;28;19917;-76
2023/02/02 06:30:09;;;;;;;;;;;;;;;;;;4995917;28;19925;-75
2023/02/02 06:32:34;;;;;;;;;;;;;;;;;;4997327;28;20372;-75
2023/02/02 06:35:00;;;;;;;;;;;;;;;;;;4984923;28;19925;-75
2023/02/02 06:37:26;;;;;;;;;;;;;;;;;;5019734;28;19924;-75
2023/02/02 06:39:52;;;;;;;;;;;;;;;;;;5000516;28;19917;-75
2023/02/02 06:42:18;;;;;;;;;;;;;;;;;;4987273;28;19950;-75
2023/02/02 06:44:44;;;;;;;;;;;;;;;;;;5002413;28;19933;-75
2023/02/02 06:47:10;;;;;;;;;;;;;;;;;;5003079;28;20130;-75
2023/02/02 06:49:36;;;;;;;;;;;;;;;;;;4996163;28;19943;-74
2023/02/02 06:52:02;;;;;;;;;;;;;;;;;;5001270;28;19926;-74
2023/02/02 06:54:28;;;;;;;;;;;;;;;;;;4999609;28;19967;-75
2023/02/02 06:56:54;;;;;;;;;;;;;;;;;;4999196;28;20188;-75
2023/02/02 06:59:20;;;;;;;;;;;;;;;;;;5001258;28;19942;-74
2023/02/02 07:01:46;;;;;;;;;;;;;;;;;;4992872;28;20660;-74
2023/02/02 07:04:12;;;;;;;;;;;;;;;;;;4984989;28;19949;-75
2023/02/02 07:06:38;;;;;;;;;;;;;;;;;;4981062;28;19925;-75
2023/02/02 07:09:04;;;;;;;;;;;;;;;;;;4979590;28;19920;-75
2023/02/02 07:11:30;;;;;;;;;;;;;;;;;;4982137;28;19925;-75
2023/02/02 07:13:56;;;;;;;;;;;;;;;;;;4996696;28;19918;-75
2023/02/02 07:16:22;;;;;;;;;;;;;;;;;;4995773;28;19932;-75
2023/02/02 07:18:48;;;;;;;;;;;;;;;;;;4986085;28;19998;-75
2023/02/02 07:21:14;;;;;;;;;;;;;;;;;;4992336;28;19925;-74
2023/02/02 07:23:40;;;;;;;;;;;;;;;;;;4978154;28;20394;-75
2023/02/02 07:26:06;;;;;;;;;;;;;;;;;;4987045;28;19929;-75
2023/02/02 07:28:32;;;;;;;;;;;;;;;;;;4995519;28;19920;-74
2023/02/02 07:30:58;;;;;;;;;;;;;;;;;;4987211;28;19921;-75
2023/02/02 07:33:23;;;;;;;;;;;;;;;;;;4987800;28;20451;-75
2023/02/02 07:35:49;;;;;;;;;;;;;;;;;;4999316;28;19952;-76
2023/02/02 07:38:15;;;;;;;;;;;;;;;;;;4992694;28;20430;-74
2023/02/02 07:40:41;;;;;;;;;;;;;;;;;;5000868;28;19924;-75
2023/02/02 07:43:07;;;;;;;;;;;;;;;;;;5017588;28;19971;-74
2023/02/02 07:45:33;;;;;;;;;;;;;;;;;;4996397;28;19953;-75
2023/02/02 07:47:59;;;;;;;;;;;;;;;;;;4997288;28;20464;-75
2023/02/02 07:50:25;;;;;;;;;;;;;;;;;;4973702;28;19933;-74
2023/02/02 07:52:51;;;;;;;;;;;;;;;;;;4995161;28;19925;-75
2023/02/02 07:55:17;;;;;;;;;;;;;;;;;;4988590;28;20000;-76
2023/02/02 07:57:43;;;;;;;;;;;;;;;;;;4987383;28;20044;-75
2023/02/02 08:00:09;;;;;;;;;;;;;;;;;;4999893;28;19940;-75
2023/02/02 08:02:35;;;;;;;;;;;;;;;;;;4997905;28;20020;-75
2023/02/02 08:05:00;;;;;;;;;;;;;;;;;;5003649;28;19931;-74
2023/02/02 08:07:26;;;;;;;;;;;;;;;;;;5007270;28;19924;-75
2023/02/02 08:09:52;;;;;;;;;;;;;;;;;;5006482;28;20036;-75
2023/02/02 08:12:19;;;;;;;;;;;;;;;;;;4992850;28;19924;-74
2023/02/02 08:14:45;;;;;;;;;;;;;;;;;;5010902;28;20427;-74
2023/02/02 08:17:12;;;;;;;;;;;;;;;;;;5008667;28;19931;-74
2023/02/02 08:19:38;;;;;;;;;;;;;;;;;;5006248;28;19966;-75
2023/02/02 08:22:03;;;;;;;;;;;;;;;;;;5000075;28;19921;-74
2023/02/02 08:24:29;;;;;;;;;;;;;;;;;;4991035;28;19975;-74
2023/02/02 08:26:55;;;;;;;;;;;;;;;;;;5001848;28;20028;-74
2023/02/02 08:29:21;;;;;;;;;;;;;;;;;;5007713;28;19948;-74
2023/02/02 08:31:47;;;;;;;;;;;;;;;;;;5008580;28;20682;-74
2023/02/02 08:34:13;;;;;;;;;;;;;;;;;;5009900;28;20007;-74
2023/02/02 08:36:39;;;;;;;;;;;;;;;;;;4989959;28;20011;-74
2023/02/02 08:39:05;;;;;;;;;;;;;;;;;;5009023;28;19917;-75
2023/02/02 08:41:31;;;;;;;;;;;;;;;;;;5003328;28;19917;-74
2023/02/02 08:43:57;;;;;;;;;;;;;;;;;;5001483;28;19920;-74
2023/02/02 08:46:23;;;;;;;;;;;;;;;;;;5009497;28;20300;-74
2023/02/02 08:48:49;;;;;;;;;;;;;;;;;;5011120;28;20066;-75
2023/02/02 08:51:15;;;;;;;;;;;;;;;;;;5004315;28;20050;-74
2023/02/02 08:53:41;;;;;;;;;;;;;;;;;;5002064;28;19936;-74
2023/02/02 08:56:07;;;;;;;;;;;;;;;;;;4992138;28;19931;-75
2023/02/02 08:58:33;;;;;;;;;;;;;;;;;;4987311;28;20564;-75
2023/02/02 09:00:58;;;;;;;;;;;;;;;;;;4994209;28;20428;-75
2023/02/02 09:03:24;;;;;;;;;;;;;;;;;;4993324;28;20581;-74
2023/02/02 09:05:50;;;;;;;;;;;;;;;;;;5008599;28;19921;-74
2023/02/02 09:08:16;;;;;;;;;;;;;;;;;;5005634;28;19983;-74
2023/02/02 09:10:42;;;;;;;;;;;;;;;;;;5007290;28;20427;-75
2023/02/02 09:13:08;;;;;;;;;;;;;;;;;;5006787;28;19917;-75
2023/02/02 09:15:34;;;;;;;;;;;;;;;;;;4989519;28;20452;-74
2023/02/02 09:18:00;;;;;;;;;;;;;;;;;;5006570;28;20411;-74
2023/02/02 09:20:26;;;;;;;;;;;;;;;;;;4987576;28;19917;-75
2023/02/02 09:22:52;;;;;;;;;;;;;;;;;;5005909;28;19917;-75
2023/02/02 09:25:18;;;;;;;;;;;;;;;;;;5008655;28;19960;-75
2023/02/02 09:27:43;;;;;;;;;;;;;;;;;;5003605;28;20501;-75
2023/02/02 09:30:09;;;;;;;;;;;;;;;;;;4986234;28;19963;-75
2023/02/02 09:32:35;;;;;;;;;;;;;;;;;;5001562;28;20273;-75
2023/02/02 09:35:01;;;;;;;;;;;;;;;;;;5004202;28;19943;-75
2023/02/02 09:37:27;;;;;;;;;;;;;;;;;;5002992;28;19932;-74
2023/02/02 09:39:53;;;;;;;;;;;;;;;;;;4998649;28;19942;-75
2023/02/02 09:42:19;;;;;;;;;;;;;;;;;;4999382;28;19933;-75
2023/02/02 09:44:45;;;;;;;;;;;;;;;;;;5022353;28;20000;-75
2023/02/02 09:47:11;;;;;;;;;;;;;;;;;;5001656;28;20350;-76
2023/02/02 09:49:37;;;;;;;;;;;;;;;;;;5002232;28;19921;-75
2023/02/02 09:52:03;;;;;;;;;;;;;;;;;;5001984;28;20457;-75
2023/02/02 09:54:31;;;;;;;;;;;;;;;;;;4982375;28;19925;-75
2023/02/02 09:56:57;;;;;;;;;;;;;;;;;;5003287;28;20398;-75
2023/02/02 09:59:23;;;;;;;;;;;;;;;;;;5003392;28;19921;-75
2023/02/02 10:01:48;;;;;;;;;;;;;;;;;;4989456;28;19917;-75
2023/02/02 10:04:14;;;;;;;;;;;;;;;;;;4988625;28;19921;-74
2023/02/02 10:06:40;;;;;;;;;;;;;;;;;;4987583;28;19925;-75
2023/02/02 10:09:06;;;;;;;;;;;;;;;;;;5007376;28;19921;-75
2023/02/02 10:11:32;;;;;;;;;;;;;;;;;;5001603;28;19921;-75
2023/02/02 10:13:58;;;;;;;;;;;;;;;;;;4974031;28;20059;-75
2023/02/02 10:16:24;;;;;;;;;;;;;;;;;;5002259;28;19944;-75
2023/02/02 10:18:50;;;;;;;;;;;;;;;;;;5005553;28;19924;-76
2023/02/02 10:21:16;;;;;;;;;;;;;;;;;;4998725;28;19928;-75
2023/02/02 10:23:43;;;;;;;;;;;;;;;;;;4985016;28;19917;-75
2023/02/02 10:26:09;;;;;;;;;;;;;;;;;;5023329;28;19974;-75
2023/02/02 10:28:34;;;;;;;;;;;;;;;;;;5003281;28;19931;-76
2023/02/02 10:31:00;;;;;;;;;;;;;;;;;;4983422;28;19921;-75
2023/02/02 10:33:26;;;;;;;;;;;;;;;;;;5000123;28;19921;-75
2023/02/02 10:35:52;;;;;;;;;;;;;;;;;;4988778;28;19917;-75
2023/02/02 10:38:18;;;;;;;;;;;;;;;;;;5004548;28;19920;-75
2023/02/02 10:40:44;;;;;;;;;;;;;;;;;;5004595;28;19921;-75
2023/02/02 10:45:55;;;;;;;;;;;;;;;;;;5002678;28;19920;-75
2023/02/02 10:48:21;;;;;;;;;;;;;;;;;;5002898;28;20298;-75
2023/02/02 10:50:47;;;;;;;;;;;;;;;;;;4991636;28;19924;-75
2023/02/02 10:53:12;;;;;;;;;;;;;;;;;;5007155;28;19921;-75
2023/02/02 10:55:40;;;;;;;;;;;;;;;;;;4987974;28;20028;-75
2023/02/02 10:58:06;;;;;;;;;;;;;;;;;;4990515;28;19924;-75
2023/02/02 11:00:31;;;;;;;;;;;;;;;;;;5000107;28;20387;-76
2023/02/02 11:02:59;;;;;;;;;;;;;;;;;;5006892;28;19921;-76
2023/02/02 11:07:56;;;;;;;;;;;;;;;;;;5003647;28;20379;-84
2023/02/02 11:10:22;;;;;;;;;;;;;;;;;;4971705;28;19918;-83
2023/02/02 11:12:51;;;;;;;;;;;;;;;;;;4975949;28;19921;-84
2023/02/02 11:15:18;;;;;;;;;;;;;;;;;;4970586;28;19928;-82
2023/02/02 11:17:44;;;;;;;;;;;;;;;;;;4974478;28;19928;-83
2023/02/02 11:20:09;;;;;;;;;;;;;;;;;;4988759;28;19917;-84
2023/02/02 11:22:35;;;;;;;;;;;;;;;;;;4995414;28;19917;-83
2023/02/02 11:25:02;;;;;;;;;;;;;;;;;;4974316;28;20380;-83
2023/02/02 11:27:28;;;;;;;;;;;;;;;;;;4985105;28;19921;-83
2023/02/02 11:29:54;;;;;;;;;;;;;;;;;;4994316;28;19928;-83
2023/02/02 11:32:20;;;;;;;;;;;;;;;;;;4977925;28;19957;-84
2023/02/02 11:34:46;;;;;;;;;;;;;;;;;;4989681;28;19917;-83
2023/02/02 11:37:12;;;;;;;;;;;;;;;;;;4966251;28;19968;-83
2023/02/02 11:39:37;;;;;;;;;;;;;;;;;;4986496;28;19983;-83
2023/02/02 11:42:04;;;;;;;;;;;;;;;;;;4984561;28;19964;-83
2023/02/02 11:44:31;;;;;;;;;;;;;;;;;;4973643;28;19975;-83
2023/02/02 11:46:57;;;;;;;;;;;;;;;;;;4977334;28;19921;-82
2023/02/02 11:49:23;;;;;;;;;;;;;;;;;;4975406;28;20411;-82
2023/02/02 11:51:49;;;;;;;;;;;;;;;;;;4987260;28;19921;-82
2023/02/02 11:54:15;;;;;;;;;;;;;;;;;;4972510;28;20343;-83
2023/02/02 11:56:40;;;;;;;;;;;;;;;;;;4993336;28;20375;-83
2023/02/02 11:59:06;;;;;;;;;;;;;;;;;;4978287;28;20084;-83
2023/02/02 12:01:32;;;;;;;;;;;;;;;;;;4986812;28;19917;-83
2023/02/02 12:03:58;;;;;;;;;;;;;;;;;;4970926;28;20008;-83
2023/02/02 12:06:25;;;;;;;;;;;;;;;;;;4992600;28;19921;-82
2023/02/02 12:08:50;;;;;;;;;;;;;;;;;;4981660;28;19967;-83
2023/02/02 12:11:16;;;;;;;;;;;;;;;;;;4971788;28;19948;-82
2023/02/02 12:13:42;;;;;;;;;;;;;;;;;;4994641;28;20070;-84
2023/02/02 12:16:08;;;;;;;;;;;;;;;;;;4972612;28;20004;-82
2023/02/02 12:18:34;;;;;;;;;;;;;;;;;;5007358;28;20440;-83
2023/02/02 12:21:00;;;;;;;;;;;;;;;;;;4974590;28;19921;-83
2023/02/02 12:23:26;;;;;;;;;;;;;;;;;;4990246;28;20304;-83
2023/02/02 12:25:52;;;;;;;;;;;;;;;;;;4980961;28;20119;-82
2023/02/02 12:28:18;;;;;;;;;;;;;;;;;;4968962;28;19921;-84
2023/02/02 12:30:44;;;;;;;;;;;;;;;;;;4977463;28;19921;-82
2023/02/02 12:33:09;;;;;;;;;;;;;;;;;;4977313;28;20277;-82
2023/02/02 12:35:35;;;;;;;;;;;;;;;;;;4975693;28;20205;-82
2023/02/02 12:38:01;;;;;;;;;;;;;;;;;;4973541;28;19917;-82
2023/02/02 12:40:28;;;;;;;;;;;;;;;;;;4991803;28;19921;-84
2023/02/02 12:42:54;;;;;;;;;;;;;;;;;;4979417;28;19980;-82
2023/02/02 12:45:20;;;;;;;;;;;;;;;;;;4967773;28;20070;-82
2023/02/02 12:47:46;;;;;;;;;;;;;;;;;;4971332;28;20536;-84
2023/02/02 12:50:12;;;;;;;;;;;;;;;;;;4976028;28;20372;-82
2023/02/02 12:52:38;;;;;;;;;;;;;;;;;;4989167;28;20641;-82
2023/02/02 12:55:04;;;;;;;;;;;;;;;;;;4969716;28;20020;-83
2023/02/02 12:57:30;;;;;;;;;;;;;;;;;;4972086;28;20012;-82
2023/02/02 12:59:56;;;;;;;;;;;;;;;;;;4969621;28;20369;-85
2023/02/02 13:02:22;;;;;;;;;;;;;;;;;;4991053;28;19917;-83
2023/02/02 13:04:48;;;;;;;;;;;;;;;;;;4976780;28;19928;-82
2023/02/02 13:07:14;;;;;;;;;;;;;;;;;;4994590;28;19960;-83
2023/02/02 13:09:40;;;;;;;;;;;;;;;;;;4978875;28;20181;-82
2023/02/02 13:12:06;;;;;;;;;;;;;;;;;;4979031;28;20364;-83
2023/02/02 13:14:32;;;;;;;;;;;;;;;;;;4996233;28;19917;-84
2023/02/02 13:16:58;;;;;;;;;;;;;;;;;;4976320;28;19918;-84
2023/02/02 13:19:24;;;;;;;;;;;;;;;;;;4978944;28;19918;-83
2023/02/02 13:21:50;;;;;;;;;;;;;;;;;;5011936;28;20008;-82
2023/02/02 13:24:15;;;;;;;;;;;;;;;;;;4998296;28;20012;-83
2023/02/02 13:26:41;;;;;;;;;;;;;;;;;;4993591;28;20044;-82
2023/02/02 13:29:10;;;;;;;;;;;;;;;;;;4997879;28;20296;-82
2023/02/02 13:31:36;;;;;;;;;;;;;;;;;;4983199;28;19925;-83
2023/02/02 13:34:02;;;;;;;;;;;;;;;;;;4978485;28;19917;-84
2023/02/02 13:36:28;;;;;;;;;;;;;;;;;;4977396;28;19917;-84
2023/02/02 13:38:54;;;;;;;;;;;;;;;;;;4972529;28;19972;-84
2023/02/02 13:41:22;;;;;;;;;;;;;;;;;;4978382;28;19925;-83
2023/02/02 13:43:48;;;;;;;;;;;;;;;;;;4979836;28;19921;-83
2023/02/02 13:46:14;;;;;;;;;;;;;;;;;;4975685;28;19931;-81
2023/02/02 13:48:39;;;;;;;;;;;;;;;;;;4980673;28;19995;-82
2023/02/02 13:51:05;;;;;;;;;;;;;;;;;;4977422;28;19925;-83
2023/02/02 13:53:33;;;;;;;;;;;;;;;;;;4984786;28;19925;-83
2023/02/02 13:55:59;;;;;;;;;;;;;;;;;;4978961;28;20383;-83
2023/02/02 13:58:25;;;;;;;;;;;;;;;;;;4978004;28;20004;-83
2023/02/02 14:00:51;;;;;;;;;;;;;;;;;;4978975;28;20000;-83
2023/02/02 14:03:17;;;;;;;;;;;;;;;;;;4976886;28;19964;-83
2023/02/02 14:05:43;;;;;;;;;;;;;;;;;;4978756;28;19940;-84
2023/02/02 14:08:09;;;;;;;;;;;;;;;;;;4987844;28;19948;-83
2023/02/02 14:10:35;;;;;;;;;;;;;;;;;;4975629;28;19928;-83
2023/02/02 14:13:01;;;;;;;;;;;;;;;;;;4976037;28;19921;-83
2023/02/02 14:15:27;;;;;;;;;;;;;;;;;;4979283;28;19962;-85
2023/02/02 14:17:53;;;;;;;;;;;;;;;;;;4972297;28;20104;-84
2023/02/02 14:20:19;;;;;;;;;;;;;;;;;;4976397;28;19928;-84
2023/02/02 14:22:46;;;;;;;;;;;;;;;;;;4960516;28;20372;-84
2023/02/02 14:25:12;;;;;;;;;;;;;;;;;;4964748;28;20602;-84
2023/02/02 14:27:38;;;;;;;;;;;;;;;;;;4980361;28;20174;-84
2023/02/02 14:30:04;;;;;;;;;;;;;;;;;;4969580;28;19920;-83
2023/02/02 14:32:31;;;;;;;;;;;;;;;;;;4957722;28;19933;-83
2023/02/02 14:34:57;;;;;;;;;;;;;;;;;;4966015;28;19921;-84
2023/02/02 14:37:23;;;;;;;;;;;;;;;;;;4977909;28;19925;-85
2023/02/02 14:39:48;;;;;;;;;;;;;;;;;;4963876;28;19925;-83
2023/02/02 14:44:59;;;;;;;;;;;;;;;;;;4978865;28;19933;-83
2023/02/02 14:47:25;;;;;;;;;;;;;;;;;;4972718;28;20034;-84
2023/02/02 14:49:51;;;;;;;;;;;;;;;;;;4966699;28;19929;-85
2023/02/02 14:52:17;;;;;;;;;;;;;;;;;;4978925;28;19917;-84
2023/02/02 14:54:43;;;;;;;;;;;;;;;;;;4968779;28;19917;-85
2023/02/02 14:57:09;;;;;;;;;;;;;;;;;;4965778;28;19927;-82
2023/02/02 14:59:35;;;;;;;;;;;;;;;;;;4969808;28;19921;-83
2023/02/02 15:02:01;;;;;;;;;;;;;;;;;;4966405;28;20366;-84
2023/02/02 15:04:27;;;;;;;;;;;;;;;;;;4966999;28;19963;-83
2023/02/02 15:06:53;;;;;;;;;;;;;;;;;;4983269;28;19964;-84
2023/02/02 15:09:19;;;;;;;;;;;;;;;;;;4980308;28;20054;-84
2023/02/02 15:11:45;;;;;;;;;;;;;;;;;;4966318;28;19920;-84
2023/02/02 15:14:11;;;;;;;;;;;;;;;;;;4983697;28;19925;-84
2023/02/02 15:16:37;;;;;;;;;;;;;;;;;;4978324;28;19984;-84
2023/02/02 15:19:03;;;;;;;;;;;;;;;;;;4989524;28;19920;-84
2023/02/02 15:21:31;;;;;;;;;;;;;;;;;;4968886;28;20272;-84
2023/02/02 15:23:57;;;;;;;;;;;;;;;;;;4972870;28;20400;-83
2023/02/02 15:26:23;;;;;;;;;;;;;;;;;;4966018;28;20324;-84
2023/02/02 15:28:49;;;;;;;;;;;;;;;;;;4971628;28;20292;-83
2023/02/02 15:31:16;;;;;;;;;;;;;;;;;;4981338;28;19925;-84
2023/02/02 15:33:42;;;;;;;;;;;;;;;;;;4973096;28;19921;-83
2023/02/02 15:36:08;;;;;;;;;;;;;;;;;;4971094;28;19925;-84
2023/02/02 15:38:34;;;;;;;;;;;;;;;;;;4986222;28;19921;-83
2023/02/02 15:41:00;;;;;;;;;;;;;;;;;;4985753;28;19944;-84
2023/02/02 15:43:26;;;;;;;;;;;;;;;;;;4968352;28;19921;-83
2023/02/02 15:45:52;;;;;;;;;;;;;;;;;;4968817;28;20022;-82
2023/02/02 15:48:18;;;;;;;;;;;;;;;;;;4988718;28;19925;-83
2023/02/02 15:50:45;;;;;;;;;;;;;;;;;;4968660;28;19929;-85
2023/02/02 15:53:11;;;;;;;;;;;;;;;;;;4987831;28;19932;-84
2023/02/02 15:55:37;;;;;;;;;;;;;;;;;;4977758;28;19921;-84
2023/02/02 15:58:03;;;;;;;;;;;;;;;;;;4970954;28;19917;-84
2023/02/02 16:00:29;;;;;;;;;;;;;;;;;;4986801;28;19922;-83
2023/02/02 16:02:55;;;;;;;;;;;;;;;;;;4981095;28;20281;-82
2023/02/02 16:05:21;;;;;;;;;;;;;;;;;;4991487;28;19960;-82
2023/02/02 16:07:47;;;;;;;;;;;;;;;;;;4973038;28;19936;-84
2023/02/02 16:10:13;;;;;;;;;;;;;;;;;;4974073;28;19971;-84
2023/02/02 16:12:39;;;;;;;;;;;;;;;;;;4974999;28;20034;-82
2023/02/02 16:15:05;;;;;;;;;;;;;;;;;;4962835;28;19918;-83
2023/02/02 16:17:31;;;;;;;;;;;;;;;;;;4985640;28;19972;-83
2023/02/02 16:19:57;;;;;;;;;;;;;;;;;;4973657;28;20005;-83
2023/02/02 16:22:24;;;;;;;;;;;;;;;;;;4971652;28;19920;-83
2023/02/02 16:24:50;;;;;;;;;;;;;;;;;;4969069;28;20016;-83
2023/02/02 16:27:16;;;;;;;;;;;;;;;;;;4987805;28;19971;-83
2023/02/02 16:29:41;;;;;;;;;;;;;;;;;;4985440;28;19971;-82
2023/02/02 16:32:07;;;;;;;;;;;;;;;;;;4977387;28;19925;-85
2023/02/02 16:34:33;;;;;;;;;;;;;;;;;;4979769;28;19940;-85
2023/02/02 16:36:59;;;;;;;;;;;;;;;;;;4969122;28;19940;-85
2023/02/02 16:39:25;;;;;;;;;;;;;;;;;;4973669;28;19932;-86
2023/02/02 16:41:51;;;;;;;;;;;;;;;;;;4962970;28;19936;-85
2023/02/02 16:44:17;;;;;;;;;;;;;;;;;;4986947;28;19964;-83
2023/02/02 16:46:43;;;;;;;;;;;;;;;;;;4966782;28;20064;-83
2023/02/02 16:49:10;;;;;;;;;;;;;;;;;;4979899;28;19956;-84
2023/02/02 16:51:36;;;;;;;;;;;;;;;;;;4970294;28;20034;-82
2023/02/02 16:54:02;;;;;;;;;;;;;;;;;;4974478;28;19980;-84
2023/02/02 16:56:28;;;;;;;;;;;;;;;;;;4969559;28;19969;-84
2023/02/02 16:58:56;;;;;;;;;;;;;;;;;;4959899;28;20713;-83